createdAt,value
2018-12-16T00:01:00.012Z,8.47
2018-12-16T00:03:40.496Z,8.41
2018-12-16T00:06:46.638Z,8.53
2018-12-16T00:09:25.123Z,8.53
2018-12-16T00:12:06.181Z,8.56
2018-12-16T00:14:44.817Z,8.53
2018-12-16T00:21:04.779Z,8.45
2018-12-16T00:23:45.690Z,8.50
2018-12-16T00:30:09.088Z,8.52
2018-12-16T00:32:52.567Z,8.55
2018-12-16T00:35:58.023Z,8.57
2018-12-16T00:38:37.115Z,8.57
2018-12-16T00:41:10.225Z,8.56
2018-12-16T00:44:10.733Z,8.52
2018-12-16T00:50:37.800Z,8.52
2018-12-16T00:53:22.429Z,8.53
2018-12-16T01:00:06.535Z,8.49
2018-12-16T01:02:47.771Z,8.57
2018-12-16T01:05:25.707Z,8.55
2018-12-16T01:08:19.995Z,8.56
2018-12-16T01:11:01.912Z,8.62
2018-12-16T01:13:32.627Z,8.57
2018-12-16T01:23:40.863Z,8.54
2018-12-16T01:45:43.146Z,8.52
2018-12-16T01:49:04.107Z,8.54
2018-12-16T01:53:15.952Z,8.45
2018-12-16T02:14:30.156Z,8.41
2018-12-16T02:17:28.192Z,8.38
2018-12-16T02:20:07.967Z,8.35
2018-12-16T02:26:21.425Z,8.36
2018-12-16T02:29:12.387Z,8.41
2018-12-16T02:35:55.937Z,8.45
2018-12-16T02:42:47.609Z,8.44
2018-12-16T02:46:04.840Z,8.47
2018-12-16T02:48:46.397Z,8.43
2018-12-16T02:51:24.510Z,8.45
2018-12-16T02:54:05.439Z,8.46
2018-12-16T02:56:46.272Z,8.44
2018-12-16T02:59:24.350Z,8.48
2018-12-16T03:02:03.963Z,8.45
2018-12-16T03:15:59.226Z,8.48
2018-12-16T03:18:38.228Z,8.46
2018-12-16T03:21:42.505Z,8.54
2018-12-16T03:24:24.039Z,8.53
2018-12-16T03:31:01.448Z,8.51
2018-12-16T03:33:39.778Z,8.55
2018-12-16T03:36:21.404Z,8.55
2018-12-16T03:38:59.127Z,8.57
2018-12-16T03:41:38.255Z,8.63
2018-12-16T03:44:16.680Z,8.56
2018-12-16T03:46:58.352Z,8.52
2018-12-16T03:49:29.046Z,8.52
2018-12-16T03:51:59.794Z,8.59
2018-12-16T03:54:41.097Z,8.54
2018-12-16T03:57:18.997Z,8.60
2018-12-16T03:59:49.744Z,8.66
2018-12-16T04:02:27.525Z,8.56
2018-12-16T04:08:42.845Z,8.53
2018-12-16T04:11:27.266Z,8.54
2018-12-16T04:14:05.894Z,8.55
2018-12-16T04:16:46.118Z,8.58
2018-12-16T04:19:23.919Z,8.55
2018-12-16T04:29:29.435Z,8.50
2018-12-16T05:02:40.390Z,8.48
2018-12-16T05:05:51.735Z,8.53
2018-12-16T06:01:15.774Z,8.60
2018-12-16T06:03:55.359Z,8.60
2018-12-16T06:06:49.937Z,8.57
2018-12-16T06:09:31.957Z,8.60
2018-12-16T06:15:25.235Z,8.56
2018-12-16T06:18:16.150Z,8.65
2018-12-16T06:20:46.897Z,8.59
2018-12-16T06:23:18.325Z,8.60
2018-12-16T06:26:28.665Z,8.58
2018-12-16T06:32:51.164Z,8.56
2018-12-16T06:36:04.847Z,8.50
2018-12-16T06:38:48.508Z,8.52
2018-12-16T06:41:19.337Z,8.47
2018-12-16T06:43:51.055Z,8.47
2018-12-16T06:46:22.889Z,8.46
2018-12-16T06:48:55.188Z,8.42
2018-12-16T06:51:26.065Z,8.46
2018-12-16T06:54:02.390Z,8.38
2018-12-16T06:56:31.315Z,8.37
2018-12-16T06:59:06.003Z,8.39
2018-12-16T07:01:36.825Z,8.36
2018-12-16T07:04:07.829Z,8.38
2018-12-16T07:06:53.168Z,8.38
2018-12-16T07:09:28.995Z,8.33
2018-12-16T07:11:59.775Z,8.28
2018-12-16T07:14:31.406Z,8.26
2018-12-16T07:17:02.084Z,8.28
2018-12-16T07:19:32.776Z,8.28
2018-12-16T07:22:06.314Z,8.28
2018-12-16T07:27:29.012Z,8.32
2018-12-16T07:30:00.966Z,8.37
2018-12-16T07:32:31.830Z,8.37
2018-12-16T07:35:03.217Z,8.28
2018-12-16T07:37:33.935Z,8.32
2018-12-16T07:40:05.573Z,8.33
2018-12-16T07:42:36.950Z,8.31
2018-12-16T07:45:15.788Z,8.33
2018-12-16T07:47:48.210Z,8.33
2018-12-16T07:50:22.248Z,8.30
2018-12-16T07:56:15.407Z,8.26
2018-12-16T07:58:53.279Z,8.23
2018-12-16T08:01:36.139Z,8.25
2018-12-16T08:04:07.035Z,8.20
2018-12-16T08:06:37.868Z,8.24
2018-12-16T08:09:08.963Z,8.24
2018-12-16T08:11:42.174Z,8.30
2018-12-16T08:14:15.889Z,8.28
2018-12-16T08:16:50.808Z,8.22
2018-12-16T08:19:25.896Z,8.25
2018-12-16T08:21:59.247Z,8.28
2018-12-16T08:24:31.830Z,8.26
2018-12-16T08:29:45.179Z,8.21
2018-12-16T08:32:26.951Z,8.21
2018-12-16T08:34:59.321Z,8.25
2018-12-16T08:37:31.090Z,8.24
2018-12-16T08:40:02.164Z,8.20
2018-12-16T08:42:38.619Z,8.20
2018-12-16T08:45:10.759Z,8.21
2018-12-16T08:47:49.033Z,8.16
2018-12-16T08:50:34.222Z,8.26
2018-12-16T08:53:14.396Z,8.26
2018-12-16T08:58:23.058Z,8.19
2018-12-16T09:00:54.433Z,8.23
2018-12-16T09:03:27.972Z,8.22
2018-12-16T09:06:03.043Z,8.18
2018-12-16T09:08:33.874Z,8.10
2018-12-16T09:11:10.314Z,8.14
2018-12-16T09:13:42.203Z,8.17
2018-12-16T09:16:12.967Z,8.14
2018-12-16T09:18:48.380Z,8.14
2018-12-16T09:21:21.034Z,8.06
2018-12-16T09:24:26.059Z,8.05
2018-12-16T09:27:04.802Z,8.08
2018-12-16T09:29:35.640Z,8.06
2018-12-16T09:32:18.407Z,8.05
2018-12-16T09:34:54.646Z,8.05
2018-12-16T09:37:25.433Z,8.04
2018-12-16T09:39:56.894Z,8.03
2018-12-16T09:42:27.699Z,8.00
2018-12-16T09:45:01.245Z,8.04
2018-12-16T09:47:34.536Z,8.03
2018-12-16T09:50:05.551Z,8.11
2018-12-16T09:52:36.346Z,8.11
2018-12-16T09:55:11.405Z,8.04
2018-12-16T09:57:43.023Z,8.06
2018-12-16T10:00:14.734Z,8.06
2018-12-16T10:02:46.516Z,7.99
2018-12-16T10:05:18.000Z,8.03
2018-12-16T10:07:50.127Z,7.98
2018-12-16T10:10:26.035Z,7.99
2018-12-16T10:12:56.768Z,8.00
2018-12-16T10:15:27.391Z,7.97
2018-12-16T10:17:58.049Z,7.96
2018-12-16T10:20:35.118Z,8.01
2018-12-16T10:23:09.346Z,8.05
2018-12-16T10:25:40.077Z,8.04
2018-12-16T10:28:10.726Z,8.07
2018-12-16T10:30:41.437Z,8.06
2018-12-16T10:33:12.233Z,8.05
2018-12-16T10:35:42.966Z,8.03
2018-12-16T10:38:13.573Z,8.01
2018-12-16T10:40:44.274Z,7.98
2018-12-16T10:43:14.954Z,7.97
2018-12-16T10:45:45.609Z,7.98
2018-12-16T10:48:16.342Z,8.00
2018-12-16T10:50:46.926Z,7.94
2018-12-16T10:53:17.954Z,7.94
2018-12-16T10:55:48.666Z,7.96
2018-12-16T10:58:19.453Z,7.97
2018-12-16T11:00:55.115Z,7.95
2018-12-16T11:03:26.265Z,7.96
2018-12-16T11:05:56.987Z,7.95
2018-12-16T11:12:43.556Z,7.96
2018-12-16T11:15:15.695Z,7.97
2018-12-16T11:17:46.493Z,7.97
2018-12-16T11:23:39.782Z,7.98
2018-12-16T11:26:12.070Z,7.98
2018-12-16T11:28:46.381Z,8.00
2018-12-16T11:31:17.187Z,8.03
2018-12-16T11:33:47.896Z,8.00
2018-12-16T11:36:18.622Z,8.00
2018-12-16T11:38:49.376Z,7.97
2018-12-16T11:41:20.088Z,7.95
2018-12-16T11:43:51.878Z,7.95
2018-12-16T11:46:22.621Z,7.97
2018-12-16T11:48:53.296Z,8.01
2018-12-16T11:51:24.149Z,8.02
2018-12-16T11:53:54.866Z,8.00
2018-12-16T11:56:25.699Z,8.02
2018-12-16T11:59:00.983Z,7.97
2018-12-16T12:01:31.954Z,7.98
2018-12-16T12:04:07.388Z,8.05
2018-12-16T12:07:13.482Z,8.00
2018-12-16T12:09:44.239Z,8.00
2018-12-16T12:12:18.000Z,7.99
2018-12-16T12:14:50.885Z,7.84
2018-12-16T12:17:21.564Z,7.99
2018-12-16T12:19:52.366Z,7.98
2018-12-16T12:22:23.109Z,7.99
2018-12-16T12:24:53.908Z,7.96
2018-12-16T12:27:24.724Z,7.95
2018-12-16T12:29:55.389Z,8.03
2018-12-16T12:32:26.095Z,8.03
2018-12-16T12:34:57.173Z,8.00
2018-12-16T12:37:28.991Z,8.00
2018-12-16T12:39:59.735Z,8.01
2018-12-16T12:42:30.482Z,8.04
2018-12-16T12:45:01.340Z,8.00
2018-12-16T12:47:40.956Z,8.04
2018-12-16T12:50:13.942Z,8.02
2018-12-16T12:52:52.244Z,7.98
2018-12-16T12:55:26.769Z,8.00
2018-12-16T12:57:56.560Z,7.99
2018-12-16T13:00:56.893Z,8.05
2018-12-16T13:07:29.406Z,7.98
2018-12-16T13:10:18.982Z,7.99
2018-12-16T13:16:46.742Z,7.93
2018-12-16T13:19:38.422Z,7.94
2018-12-16T13:22:45.695Z,7.96
2018-12-16T13:25:36.318Z,7.73
2018-12-16T13:31:16.875Z,7.98
2018-12-16T13:34:21.314Z,7.93
2018-12-16T13:37:01.908Z,8.00
2018-12-16T13:42:36.647Z,7.95
2018-12-16T13:52:31.825Z,7.92
2018-12-16T13:55:24.894Z,7.90
2018-12-16T14:08:23.266Z,7.87
2018-12-16T14:11:15.112Z,7.91
2018-12-16T14:27:01.951Z,7.90
2018-12-16T14:30:19.916Z,7.85
2018-12-16T14:33:04.655Z,7.80
2018-12-16T14:35:50.578Z,7.85
2018-12-16T14:38:40.520Z,7.79
2018-12-16T14:41:50.071Z,7.77
2018-12-16T14:44:54.973Z,7.81
2018-12-16T14:47:47.167Z,7.81
2018-12-16T14:50:45.111Z,7.86
2018-12-16T14:53:39.875Z,7.88
2018-12-16T14:56:33.165Z,7.89
2018-12-16T14:59:17.542Z,7.82
2018-12-16T15:02:05.627Z,7.82
2018-12-16T15:04:50.323Z,7.88
2018-12-16T15:07:41.605Z,7.84
2018-12-16T15:10:37.285Z,7.88
2018-12-16T15:13:31.750Z,7.87
2018-12-16T15:16:10.379Z,7.91
2018-12-16T15:19:28.371Z,7.88
2018-12-16T15:22:14.272Z,7.89
2018-12-16T15:24:58.886Z,7.93
2018-12-16T15:27:29.615Z,7.90
2018-12-16T15:30:11.880Z,7.90
2018-12-16T15:32:42.659Z,7.87
2018-12-16T15:35:59.109Z,7.94
2018-12-16T15:38:33.195Z,7.92
2018-12-16T15:41:16.153Z,7.94
2018-12-16T15:44:00.723Z,7.93
2018-12-16T15:46:39.531Z,7.92
2018-12-16T15:49:14.025Z,7.95
2018-12-16T15:51:52.757Z,7.96
2018-12-16T15:58:13.437Z,7.94
2018-12-16T16:01:19.324Z,7.99
2018-12-16T16:07:42.256Z,7.94
2018-12-16T16:13:34.247Z,7.93
2018-12-16T16:16:04.988Z,7.96
2018-12-16T16:18:35.835Z,7.96
2018-12-16T16:21:06.534Z,7.94
2018-12-16T16:23:37.252Z,7.92
2018-12-16T16:26:22.231Z,7.92
2018-12-16T16:28:52.944Z,7.96
2018-12-16T16:32:00.489Z,7.95
2018-12-16T16:34:39.399Z,7.79
2018-12-16T16:37:13.980Z,7.96
2018-12-16T16:39:51.732Z,7.96
2018-12-16T16:42:29.533Z,7.98
2018-12-16T16:45:07.980Z,7.95
2018-12-16T16:47:39.745Z,7.92
2018-12-16T16:50:52.131Z,7.97
2018-12-16T16:53:30.162Z,7.93
2018-12-16T16:56:47.281Z,7.98
2018-12-16T16:59:25.564Z,7.94
2018-12-16T17:02:04.181Z,7.92
2018-12-16T17:04:42.832Z,7.91
2018-12-16T17:07:42.671Z,7.90
2018-12-16T17:10:17.160Z,7.92
2018-12-16T17:13:09.923Z,7.96
2018-12-16T17:16:10.383Z,7.92
2018-12-16T17:18:49.157Z,7.93
2018-12-16T17:21:27.748Z,7.94
2018-12-16T17:23:58.908Z,7.93
2018-12-16T17:26:37.008Z,7.90
2018-12-16T17:29:07.817Z,7.94
2018-12-16T17:31:45.608Z,7.94
2018-12-16T17:34:16.462Z,7.89
2018-12-16T17:37:33.438Z,7.92
2018-12-16T17:40:04.368Z,7.90
2018-12-16T17:42:42.387Z,7.91
2018-12-16T17:45:29.866Z,7.90
2018-12-16T17:48:07.728Z,7.92
2018-12-16T17:54:52.568Z,7.95
2018-12-16T17:57:31.409Z,7.96
2018-12-16T18:00:02.308Z,7.93
2018-12-16T18:02:32.997Z,7.89
2018-12-16T18:05:03.776Z,7.92
2018-12-16T18:07:34.552Z,7.89
2018-12-16T18:10:05.766Z,7.92
2018-12-16T18:12:36.532Z,7.90
2018-12-16T18:15:08.594Z,7.88
2018-12-16T18:17:59.819Z,7.84
2018-12-16T18:20:30.602Z,7.86
2018-12-16T18:23:01.203Z,7.85
2018-12-16T18:25:31.929Z,7.81
2018-12-16T18:28:02.537Z,7.82
2018-12-16T18:30:33.203Z,7.79
2018-12-16T18:33:42.290Z,7.85
2018-12-16T18:36:27.295Z,7.75
2018-12-16T18:38:58.107Z,7.77
2018-12-16T18:41:28.840Z,7.77
2018-12-16T18:43:59.706Z,7.75
2018-12-16T18:46:30.391Z,7.76
2018-12-16T18:49:01.182Z,7.67
2018-12-16T18:51:31.809Z,7.69
2018-12-16T18:54:03.659Z,7.73
2018-12-16T18:56:34.444Z,7.71
2018-12-16T18:59:05.343Z,7.68
2018-12-16T19:01:36.256Z,7.73
2018-12-16T19:04:06.998Z,7.69
2018-12-16T19:06:38.436Z,7.71
2018-12-16T19:09:09.640Z,7.67
2018-12-16T19:11:42.406Z,7.65
2018-12-16T19:14:13.097Z,7.62
2018-12-16T19:16:43.811Z,7.63
2018-12-16T19:19:15.529Z,7.64
2018-12-16T19:21:46.302Z,7.66
2018-12-16T19:24:18.573Z,7.66
2018-12-16T19:26:49.343Z,7.63
2018-12-16T19:29:20.030Z,7.65
2018-12-16T19:31:50.654Z,7.57
2018-12-16T19:34:43.950Z,7.59
2018-12-16T19:37:14.722Z,7.59
2018-12-16T19:39:45.499Z,7.59
2018-12-16T19:42:16.257Z,7.57
2018-12-16T19:44:46.986Z,7.58
2018-12-16T19:47:17.720Z,7.55
2018-12-16T19:49:48.444Z,7.57
2018-12-16T19:52:20.126Z,7.57
2018-12-16T19:55:00.001Z,7.58
2018-12-16T19:57:38.279Z,7.58
2018-12-16T20:01:35.684Z,7.54
2018-12-16T20:04:11.304Z,7.56
2018-12-16T20:06:58.598Z,7.52
2018-12-16T20:09:29.307Z,7.57
2018-12-16T20:12:00.019Z,7.49
2018-12-16T20:14:30.689Z,7.53
2018-12-16T20:17:01.424Z,7.56
2018-12-16T20:19:32.113Z,7.54
2018-12-16T20:22:02.825Z,7.55
2018-12-16T20:24:33.581Z,7.54
2018-12-16T20:27:04.418Z,7.50
2018-12-16T20:29:36.652Z,7.52
2018-12-16T20:32:07.428Z,7.55
2018-12-16T20:34:38.133Z,7.59
2018-12-16T20:37:09.166Z,7.55
2018-12-16T20:39:39.876Z,7.48
2018-12-16T20:42:10.573Z,7.51
2018-12-16T20:44:48.561Z,7.57
2018-12-16T20:47:19.292Z,7.50
2018-12-16T20:49:54.359Z,7.52
2018-12-16T20:52:25.173Z,7.48
2018-12-16T20:54:55.903Z,7.47
2018-12-16T20:57:26.656Z,7.50
2018-12-16T20:59:57.341Z,7.52
2018-12-16T21:02:28.119Z,7.48
2018-12-16T21:04:58.897Z,7.48
2018-12-16T21:07:29.638Z,7.50
2018-12-16T21:10:01.366Z,7.51
2018-12-16T21:12:37.961Z,7.50
2018-12-16T21:15:13.522Z,7.49
2018-12-16T21:56:51.588Z,7.26
2018-12-16T21:59:22.282Z,7.31
2018-12-16T22:01:52.935Z,7.33
2018-12-16T22:04:23.614Z,7.44
2018-12-16T22:06:54.628Z,7.47
2018-12-16T22:09:25.424Z,7.45
2018-12-16T22:11:56.210Z,7.48
2018-12-16T22:14:27.019Z,7.45
2018-12-16T22:16:57.739Z,7.51
2018-12-16T22:19:28.470Z,7.49
2018-12-16T22:21:59.160Z,7.47
2018-12-16T22:24:29.817Z,7.45
2018-12-16T22:27:01.008Z,7.51
2018-12-16T22:29:31.758Z,7.49
2018-12-16T22:32:02.522Z,7.24
2018-12-16T22:34:35.255Z,6.90
2018-12-16T22:37:05.982Z,6.55
2018-12-16T22:39:36.661Z,6.30
2018-12-16T22:42:07.685Z,5.94
2018-12-16T22:44:38.318Z,5.65
2018-12-16T22:47:08.962Z,5.48
2018-12-16T22:49:43.672Z,5.36
2018-12-16T22:52:14.346Z,5.06
2018-12-16T22:54:45.095Z,4.90
2018-12-16T22:57:15.755Z,4.53
2018-12-16T22:59:46.418Z,4.65
2018-12-16T23:02:17.111Z,4.46
2018-12-16T23:04:47.836Z,4.35
2018-12-16T23:07:21.375Z,3.77
2018-12-16T23:09:52.320Z,3.99
2018-12-16T23:12:23.070Z,3.94
2018-12-16T23:14:55.691Z,3.70
2018-12-16T23:17:26.360Z,3.80
2018-12-16T23:20:01.751Z,3.70
2018-12-16T23:22:32.365Z,3.58
2018-12-16T23:25:03.074Z,3.65
2018-12-16T23:27:34.688Z,3.63
2018-12-16T23:30:06.041Z,3.75
2018-12-16T23:32:36.748Z,3.70
2018-12-16T23:35:07.527Z,3.62
2018-12-16T23:37:38.136Z,3.61
2018-12-16T23:40:10.073Z,3.55
2018-12-16T23:42:40.673Z,3.47
2018-12-16T23:45:11.656Z,3.23
2018-12-16T23:47:42.382Z,3.28
